sensor_id;sensor_type;location;lat;lon;timestamp;P1;durP1;ratioP1;P2;durP2;ratioP2
43817;SDS011;29868;47.360;18.984;2023-05-24T00:00:27;10.15;;;6.28;;
43817;SDS011;29868;47.360;18.984;2023-05-24T00:02:52;8.90;;;6.10;;
43817;SDS011;29868;47.360;18.984;2023-05-24T00:05:18;12.73;;;6.50;;
43817;SDS011;29868;47.360;18.984;2023-05-24T00:07:43;8.88;;;6.13;;
43817;SDS011;29868;47.360;18.984;2023-05-24T00:10:12;10.15;;;6.50;;
43817;SDS011;29868;47.360;18.984;2023-05-24T00:12:37;9.68;;;5.82;;
43817;SDS011;29868;47.360;18.984;2023-05-24T00:15:03;9.68;;;6.30;;
43817;SDS011;29868;47.360;18.984;2023-05-24T00:17:29;8.13;;;5.85;;
43817;SDS011;29868;47.360;18.984;2023-05-24T00:19:54;8.65;;;5.95;;
43817;SDS011;29868;47.360;18.984;2023-05-24T00:22:20;9.23;;;6.60;;
43817;SDS011;29868;47.360;18.984;2023-05-24T00:24:48;10.07;;;6.22;;
43817;SDS011;29868;47.360;18.984;2023-05-24T00:27:14;7.80;;;6.10;;
43817;SDS011;29868;47.360;18.984;2023-05-24T00:29:39;7.35;;;5.63;;
43817;SDS011;29868;47.360;18.984;2023-05-24T00:32:05;9.07;;;6.18;;
43817;SDS011;29868;47.360;18.984;2023-05-24T00:34:31;10.27;;;6.47;;
43817;SDS011;29868;47.360;18.984;2023-05-24T00:36:56;8.77;;;6.30;;
43817;SDS011;29868;47.360;18.984;2023-05-24T00:39:22;9.43;;;6.03;;
43817;SDS011;29868;47.360;18.984;2023-05-24T00:41:48;8.88;;;6.18;;
43817;SDS011;29868;47.360;18.984;2023-05-24T00:44:13;11.40;;;6.43;;
43817;SDS011;29868;47.360;18.984;2023-05-24T00:46:39;9.07;;;6.80;;
43817;SDS011;29868;47.360;18.984;2023-05-24T00:49:05;9.82;;;6.53;;
43817;SDS011;29868;47.360;18.984;2023-05-24T00:51:31;10.43;;;6.65;;
43817;SDS011;29868;47.360;18.984;2023-05-24T00:53:58;9.05;;;6.55;;
43817;SDS011;29868;47.360;18.984;2023-05-24T00:56:23;11.05;;;6.70;;
43817;SDS011;29868;47.360;18.984;2023-05-24T00:58:50;8.25;;;6.30;;
43817;SDS011;29868;47.360;18.984;2023-05-24T01:01:20;9.25;;;6.28;;
43817;SDS011;29868;47.360;18.984;2023-05-24T01:03:50;9.70;;;6.90;;
43817;SDS011;29868;47.360;18.984;2023-05-24T01:06:19;10.35;;;7.47;;
43817;SDS011;29868;47.360;18.984;2023-05-24T01:08:47;8.68;;;6.30;;
43817;SDS011;29868;47.360;18.984;2023-05-24T01:11:34;10.88;;;6.63;;
43817;SDS011;29868;47.360;18.984;2023-05-24T01:19:56;8.75;;;6.60;;
43817;SDS011;29868;47.360;18.984;2023-05-24T01:22:46;10.13;;;6.93;;
43817;SDS011;29868;47.360;18.984;2023-05-24T01:25:26;11.10;;;6.85;;
43817;SDS011;29868;47.360;18.984;2023-05-24T01:28:06;9.27;;;6.45;;
43817;SDS011;29868;47.360;18.984;2023-05-24T01:30:32;8.77;;;6.15;;
43817;SDS011;29868;47.360;18.984;2023-05-24T01:32:58;9.63;;;6.78;;
43817;SDS011;29868;47.360;18.984;2023-05-24T01:35:24;8.60;;;6.45;;
43817;SDS011;29868;47.360;18.984;2023-05-24T01:37:49;9.35;;;6.60;;
43817;SDS011;29868;47.360;18.984;2023-05-24T01:40:15;8.98;;;6.28;;
43817;SDS011;29868;47.360;18.984;2023-05-24T01:42:48;10.48;;;7.22;;
43817;SDS011;29868;47.360;18.984;2023-05-24T01:45:24;10.23;;;6.38;;
43817;SDS011;29868;47.360;18.984;2023-05-24T01:50:52;10.27;;;6.57;;
43817;SDS011;29868;47.360;18.984;2023-05-24T01:53:22;10.88;;;7.32;;
43817;SDS011;29868;47.360;18.984;2023-05-24T01:55:53;9.48;;;7.22;;
43817;SDS011;29868;47.360;18.984;2023-05-24T01:58:21;9.63;;;6.80;;
43817;SDS011;29868;47.360;18.984;2023-05-24T02:00:49;11.50;;;7.55;;
43817;SDS011;29868;47.360;18.984;2023-05-24T02:03:16;9.95;;;7.43;;
43817;SDS011;29868;47.360;18.984;2023-05-24T02:05:42;11.52;;;8.32;;
43817;SDS011;29868;47.360;18.984;2023-05-24T02:08:08;10.75;;;7.00;;
43817;SDS011;29868;47.360;18.984;2023-05-24T02:10:34;10.57;;;7.47;;
43817;SDS011;29868;47.360;18.984;2023-05-24T02:13:03;10.85;;;7.53;;
43817;SDS011;29868;47.360;18.984;2023-05-24T02:15:28;12.13;;;7.70;;
43817;SDS011;29868;47.360;18.984;2023-05-24T02:17:54;11.07;;;7.40;;
43817;SDS011;29868;47.360;18.984;2023-05-24T02:20:20;10.75;;;7.65;;
43817;SDS011;29868;47.360;18.984;2023-05-24T02:22:49;10.00;;;7.40;;
43817;SDS011;29868;47.360;18.984;2023-05-24T02:25:15;12.35;;;7.65;;
43817;SDS011;29868;47.360;18.984;2023-05-24T02:27:40;11.52;;;7.50;;
43817;SDS011;29868;47.360;18.984;2023-05-24T02:30:11;10.70;;;7.78;;
43817;SDS011;29868;47.360;18.984;2023-05-24T02:32:36;11.15;;;7.90;;
43817;SDS011;29868;47.360;18.984;2023-05-24T02:35:02;11.18;;;7.88;;
43817;SDS011;29868;47.360;18.984;2023-05-24T02:37:27;11.20;;;7.85;;
43817;SDS011;29868;47.360;18.984;2023-05-24T02:39:53;11.25;;;7.80;;
43817;SDS011;29868;47.360;18.984;2023-05-24T02:42:18;12.52;;;8.10;;
43817;SDS011;29868;47.360;18.984;2023-05-24T02:44:44;12.63;;;8.52;;
43817;SDS011;29868;47.360;18.984;2023-05-24T02:47:13;10.63;;;8.02;;
43817;SDS011;29868;47.360;18.984;2023-05-24T02:49:39;11.38;;;8.63;;
43817;SDS011;29868;47.360;18.984;2023-05-24T02:52:04;12.90;;;8.75;;
43817;SDS011;29868;47.360;18.984;2023-05-24T02:54:30;11.77;;;8.60;;
43817;SDS011;29868;47.360;18.984;2023-05-24T02:56:55;13.80;;;8.77;;
43817;SDS011;29868;47.360;18.984;2023-05-24T02:59:22;11.77;;;8.07;;
43817;SDS011;29868;47.360;18.984;2023-05-24T03:01:48;12.57;;;8.38;;
43817;SDS011;29868;47.360;18.984;2023-05-24T03:04:13;12.63;;;8.73;;
43817;SDS011;29868;47.360;18.984;2023-05-24T03:06:39;14.10;;;9.05;;
43817;SDS011;29868;47.360;18.984;2023-05-24T03:09:05;15.93;;;10.50;;
43817;SDS011;29868;47.360;18.984;2023-05-24T03:11:30;16.88;;;10.27;;
43817;SDS011;29868;47.360;18.984;2023-05-24T03:13:55;16.67;;;10.88;;
43817;SDS011;29868;47.360;18.984;2023-05-24T03:16:21;19.92;;;11.02;;
43817;SDS011;29868;47.360;18.984;2023-05-24T03:18:46;18.30;;;10.68;;
43817;SDS011;29868;47.360;18.984;2023-05-24T03:21:14;14.82;;;10.00;;
43817;SDS011;29868;47.360;18.984;2023-05-24T03:23:40;14.48;;;10.00;;
43817;SDS011;29868;47.360;18.984;2023-05-24T03:26:05;16.48;;;11.00;;
43817;SDS011;29868;47.360;18.984;2023-05-24T03:28:31;19.00;;;11.70;;
43817;SDS011;29868;47.360;18.984;2023-05-24T03:30:57;20.00;;;13.40;;
43817;SDS011;29868;47.360;18.984;2023-05-24T03:33:23;25.00;;;15.38;;
43817;SDS011;29868;47.360;18.984;2023-05-24T03:35:48;27.75;;;17.10;;
43817;SDS011;29868;47.360;18.984;2023-05-24T03:38:14;30.17;;;17.73;;
43817;SDS011;29868;47.360;18.984;2023-05-24T03:40:39;31.52;;;18.77;;
43817;SDS011;29868;47.360;18.984;2023-05-24T03:43:04;32.40;;;19.77;;
43817;SDS011;29868;47.360;18.984;2023-05-24T03:45:30;30.80;;;19.10;;
43817;SDS011;29868;47.360;18.984;2023-05-24T03:47:55;33.03;;;20.48;;
43817;SDS011;29868;47.360;18.984;2023-05-24T03:50:23;32.75;;;19.90;;
43817;SDS011;29868;47.360;18.984;2023-05-24T03:52:49;34.15;;;20.90;;
43817;SDS011;29868;47.360;18.984;2023-05-24T03:55:15;34.97;;;21.05;;
43817;SDS011;29868;47.360;18.984;2023-05-24T03:57:42;32.60;;;19.60;;
43817;SDS011;29868;47.360;18.984;2023-05-24T04:00:08;31.98;;;19.30;;
43817;SDS011;29868;47.360;18.984;2023-05-24T04:02:34;32.15;;;19.83;;
43817;SDS011;29868;47.360;18.984;2023-05-24T04:05:02;32.38;;;19.27;;
43817;SDS011;29868;47.360;18.984;2023-05-24T04:07:35;29.63;;;18.90;;
43817;SDS011;29868;47.360;18.984;2023-05-24T04:10:01;27.65;;;18.17;;
43817;SDS011;29868;47.360;18.984;2023-05-24T04:12:28;28.88;;;18.25;;
43817;SDS011;29868;47.360;18.984;2023-05-24T04:15:00;27.77;;;16.90;;
43817;SDS011;29868;47.360;18.984;2023-05-24T04:17:26;27.80;;;16.48;;
43817;SDS011;29868;47.360;18.984;2023-05-24T04:19:54;24.70;;;15.68;;
43817;SDS011;29868;47.360;18.984;2023-05-24T04:22:20;26.73;;;15.88;;
43817;SDS011;29868;47.360;18.984;2023-05-24T04:24:45;20.40;;;14.38;;
43817;SDS011;29868;47.360;18.984;2023-05-24T04:27:11;21.98;;;14.30;;
43817;SDS011;29868;47.360;18.984;2023-05-24T04:29:38;16.95;;;12.70;;
43817;SDS011;29868;47.360;18.984;2023-05-24T04:32:04;17.65;;;12.95;;
43817;SDS011;29868;47.360;18.984;2023-05-24T04:34:30;21.23;;;12.82;;
43817;SDS011;29868;47.360;18.984;2023-05-24T04:36:58;17.88;;;12.57;;
43817;SDS011;29868;47.360;18.984;2023-05-24T04:39:24;18.42;;;12.07;;
43817;SDS011;29868;47.360;18.984;2023-05-24T04:41:49;17.83;;;11.93;;
43817;SDS011;29868;47.360;18.984;2023-05-24T04:44:17;19.50;;;12.32;;
43817;SDS011;29868;47.360;18.984;2023-05-24T04:46:42;15.85;;;11.93;;
43817;SDS011;29868;47.360;18.984;2023-05-24T04:49:08;18.08;;;11.98;;
43817;SDS011;29868;47.360;18.984;2023-05-24T04:51:33;14.82;;;11.20;;
43817;SDS011;29868;47.360;18.984;2023-05-24T04:54:02;16.30;;;11.85;;
43817;SDS011;29868;47.360;18.984;2023-05-24T04:56:32;15.23;;;10.68;;
43817;SDS011;29868;47.360;18.984;2023-05-24T04:59:02;15.35;;;11.15;;
43817;SDS011;29868;47.360;18.984;2023-05-24T05:01:31;17.45;;;11.80;;
43817;SDS011;29868;47.360;18.984;2023-05-24T05:03:58;18.15;;;11.85;;
43817;SDS011;29868;47.360;18.984;2023-05-24T05:06:23;16.77;;;12.30;;
43817;SDS011;29868;47.360;18.984;2023-05-24T05:08:49;16.05;;;11.35;;
43817;SDS011;29868;47.360;18.984;2023-05-24T05:11:15;14.32;;;10.70;;
43817;SDS011;29868;47.360;18.984;2023-05-24T05:13:42;15.80;;;10.77;;
43817;SDS011;29868;47.360;18.984;2023-05-24T05:16:08;14.55;;;10.95;;
43817;SDS011;29868;47.360;18.984;2023-05-24T05:18:33;16.92;;;11.93;;
43817;SDS011;29868;47.360;18.984;2023-05-24T05:20:59;16.55;;;12.23;;
43817;SDS011;29868;47.360;18.984;2023-05-24T05:23:25;16.35;;;11.65;;
43817;SDS011;29868;47.360;18.984;2023-05-24T05:25:50;17.67;;;11.77;;
43817;SDS011;29868;47.360;18.984;2023-05-24T05:28:16;15.63;;;12.10;;
43817;SDS011;29868;47.360;18.984;2023-05-24T05:30:41;18.88;;;13.20;;
43817;SDS011;29868;47.360;18.984;2023-05-24T05:33:06;17.92;;;12.77;;
43817;SDS011;29868;47.360;18.984;2023-05-24T05:35:32;16.38;;;11.75;;
43817;SDS011;29868;47.360;18.984;2023-05-24T05:37:57;18.58;;;12.20;;
43817;SDS011;29868;47.360;18.984;2023-05-24T05:40:23;15.93;;;11.98;;
43817;SDS011;29868;47.360;18.984;2023-05-24T05:42:48;18.92;;;11.68;;
43817;SDS011;29868;47.360;18.984;2023-05-24T05:45:14;13.98;;;10.63;;
43817;SDS011;29868;47.360;18.984;2023-05-24T05:47:40;13.63;;;11.40;;
43817;SDS011;29868;47.360;18.984;2023-05-24T05:50:07;13.20;;;10.52;;
43817;SDS011;29868;47.360;18.984;2023-05-24T05:52:33;13.77;;;10.25;;
43817;SDS011;29868;47.360;18.984;2023-05-24T05:54:58;16.15;;;10.32;;
43817;SDS011;29868;47.360;18.984;2023-05-24T05:57:24;14.93;;;10.57;;
43817;SDS011;29868;47.360;18.984;2023-05-24T05:59:50;13.30;;;10.30;;
43817;SDS011;29868;47.360;18.984;2023-05-24T06:02:16;11.73;;;9.32;;
43817;SDS011;29868;47.360;18.984;2023-05-24T06:04:43;12.32;;;9.02;;
43817;SDS011;29868;47.360;18.984;2023-05-24T06:07:09;11.15;;;9.00;;
43817;SDS011;29868;47.360;18.984;2023-05-24T06:09:34;12.93;;;9.07;;
43817;SDS011;29868;47.360;18.984;2023-05-24T06:12:00;12.93;;;9.00;;
43817;SDS011;29868;47.360;18.984;2023-05-24T06:14:25;13.13;;;8.27;;
43817;SDS011;29868;47.360;18.984;2023-05-24T06:16:51;11.25;;;8.25;;
43817;SDS011;29868;47.360;18.984;2023-05-24T06:19:18;10.63;;;7.60;;
43817;SDS011;29868;47.360;18.984;2023-05-24T06:21:44;10.32;;;7.72;;
43817;SDS011;29868;47.360;18.984;2023-05-24T06:24:15;9.82;;;7.32;;
43817;SDS011;29868;47.360;18.984;2023-05-24T06:26:50;10.32;;;8.02;;
43817;SDS011;29868;47.360;18.984;2023-05-24T06:29:17;8.88;;;7.30;;
43817;SDS011;29868;47.360;18.984;2023-05-24T06:31:49;9.65;;;7.43;;
43817;SDS011;29868;47.360;18.984;2023-05-24T06:34:15;9.55;;;8.07;;
43817;SDS011;29868;47.360;18.984;2023-05-24T06:36:45;9.23;;;7.60;;
43817;SDS011;29868;47.360;18.984;2023-05-24T06:39:12;9.88;;;7.30;;
43817;SDS011;29868;47.360;18.984;2023-05-24T06:41:38;8.80;;;7.35;;
43817;SDS011;29868;47.360;18.984;2023-05-24T06:44:04;10.15;;;7.45;;
43817;SDS011;29868;47.360;18.984;2023-05-24T06:46:30;9.10;;;7.55;;
43817;SDS011;29868;47.360;18.984;2023-05-24T06:48:56;10.50;;;7.47;;
43817;SDS011;29868;47.360;18.984;2023-05-24T06:51:22;10.65;;;7.57;;
43817;SDS011;29868;47.360;18.984;2023-05-24T06:53:48;9.30;;;7.70;;
43817;SDS011;29868;47.360;18.984;2023-05-24T06:56:13;9.60;;;7.65;;
43817;SDS011;29868;47.360;18.984;2023-05-24T06:58:39;9.95;;;7.65;;
43817;SDS011;29868;47.360;18.984;2023-05-24T07:01:04;10.32;;;8.18;;
43817;SDS011;29868;47.360;18.984;2023-05-24T07:03:30;9.90;;;7.68;;
43817;SDS011;29868;47.360;18.984;2023-05-24T07:05:58;11.10;;;7.53;;
43817;SDS011;29868;47.360;18.984;2023-05-24T07:08:24;10.35;;;7.65;;
43817;SDS011;29868;47.360;18.984;2023-05-24T07:10:49;9.50;;;7.70;;
43817;SDS011;29868;47.360;18.984;2023-05-24T07:13:15;9.02;;;7.75;;
43817;SDS011;29868;47.360;18.984;2023-05-24T07:15:41;9.43;;;7.10;;
43817;SDS011;29868;47.360;18.984;2023-05-24T07:18:06;10.30;;;7.75;;
43817;SDS011;29868;47.360;18.984;2023-05-24T07:20:32;10.88;;;7.70;;
43817;SDS011;29868;47.360;18.984;2023-05-24T07:22:57;9.48;;;8.30;;
43817;SDS011;29868;47.360;18.984;2023-05-24T07:25:24;11.00;;;8.27;;
43817;SDS011;29868;47.360;18.984;2023-05-24T07:27:50;10.50;;;8.25;;
43817;SDS011;29868;47.360;18.984;2023-05-24T07:30:15;11.25;;;8.32;;
43817;SDS011;29868;47.360;18.984;2023-05-24T07:32:41;10.57;;;8.00;;
43817;SDS011;29868;47.360;18.984;2023-05-24T07:35:06;10.52;;;8.05;;
43817;SDS011;29868;47.360;18.984;2023-05-24T07:37:32;10.02;;;8.65;;
43817;SDS011;29868;47.360;18.984;2023-05-24T07:39:58;11.25;;;8.07;;
43817;SDS011;29868;47.360;18.984;2023-05-24T07:42:23;11.32;;;8.57;;
43817;SDS011;29868;47.360;18.984;2023-05-24T07:44:49;10.25;;;9.02;;
43817;SDS011;29868;47.360;18.984;2023-05-24T07:47:14;11.52;;;8.60;;
43817;SDS011;29868;47.360;18.984;2023-05-24T07:49:40;11.55;;;8.55;;
43817;SDS011;29868;47.360;18.984;2023-05-24T07:52:06;10.30;;;8.40;;
43817;SDS011;29868;47.360;18.984;2023-05-24T07:54:31;12.98;;;8.80;;
43817;SDS011;29868;47.360;18.984;2023-05-24T07:56:57;10.05;;;8.20;;
43817;SDS011;29868;47.360;18.984;2023-05-24T07:59:22;9.95;;;8.57;;
43817;SDS011;29868;47.360;18.984;2023-05-24T08:01:48;10.45;;;8.40;;
43817;SDS011;29868;47.360;18.984;2023-05-24T08:04:14;10.35;;;7.90;;
43817;SDS011;29868;47.360;18.984;2023-05-24T08:06:40;11.05;;;8.38;;
43817;SDS011;29868;47.360;18.984;2023-05-24T08:09:05;12.63;;;8.50;;
43817;SDS011;29868;47.360;18.984;2023-05-24T08:11:32;11.20;;;7.65;;
43817;SDS011;29868;47.360;18.984;2023-05-24T08:13:57;10.00;;;8.15;;
43817;SDS011;29868;47.360;18.984;2023-05-24T08:16:23;10.48;;;7.95;;
43817;SDS011;29868;47.360;18.984;2023-05-24T08:18:48;12.65;;;8.75;;
43817;SDS011;29868;47.360;18.984;2023-05-24T08:21:14;10.23;;;8.35;;
43817;SDS011;29868;47.360;18.984;2023-05-24T08:23:39;10.82;;;8.40;;
43817;SDS011;29868;47.360;18.984;2023-05-24T08:26:05;11.73;;;8.32;;
43817;SDS011;29868;47.360;18.984;2023-05-24T08:28:30;11.35;;;8.55;;
43817;SDS011;29868;47.360;18.984;2023-05-24T08:30:56;10.30;;;8.25;;
43817;SDS011;29868;47.360;18.984;2023-05-24T08:33:22;11.32;;;8.65;;
43817;SDS011;29868;47.360;18.984;2023-05-24T08:35:49;11.38;;;8.25;;
43817;SDS011;29868;47.360;18.984;2023-05-24T08:38:15;10.55;;;8.38;;
43817;SDS011;29868;47.360;18.984;2023-05-24T08:40:41;12.57;;;7.65;;
43817;SDS011;29868;47.360;18.984;2023-05-24T08:43:07;10.60;;;8.20;;
43817;SDS011;29868;47.360;18.984;2023-05-24T08:45:36;8.95;;;7.65;;
43817;SDS011;29868;47.360;18.984;2023-05-24T08:48:06;10.05;;;7.28;;
43817;SDS011;29868;47.360;18.984;2023-05-24T08:50:33;8.23;;;6.43;;
43817;SDS011;29868;47.360;18.984;2023-05-24T08:52:59;9.45;;;6.95;;
43817;SDS011;29868;47.360;18.984;2023-05-24T08:55:31;9.65;;;6.78;;
43817;SDS011;29868;47.360;18.984;2023-05-24T08:57:57;9.65;;;6.50;;
43817;SDS011;29868;47.360;18.984;2023-05-24T09:00:24;6.50;;;5.35;;
43817;SDS011;29868;47.360;18.984;2023-05-24T09:02:51;8.40;;;6.57;;
43817;SDS011;29868;47.360;18.984;2023-05-24T09:05:17;9.10;;;5.90;;
43817;SDS011;29868;47.360;18.984;2023-05-24T09:07:45;8.23;;;5.70;;
43817;SDS011;29868;47.360;18.984;2023-05-24T09:10:13;7.32;;;5.70;;
43817;SDS011;29868;47.360;18.984;2023-05-24T09:12:41;7.80;;;5.85;;
43817;SDS011;29868;47.360;18.984;2023-05-24T09:15:09;7.05;;;5.80;;
43817;SDS011;29868;47.360;18.984;2023-05-24T09:17:35;8.63;;;6.30;;
43817;SDS011;29868;47.360;18.984;2023-05-24T09:20:01;7.75;;;5.88;;
43817;SDS011;29868;47.360;18.984;2023-05-24T09:22:30;7.68;;;5.80;;
43817;SDS011;29868;47.360;18.984;2023-05-24T09:25:00;8.23;;;6.13;;
43817;SDS011;29868;47.360;18.984;2023-05-24T09:27:26;8.20;;;6.22;;
43817;SDS011;29868;47.360;18.984;2023-05-24T09:29:53;7.13;;;6.00;;
43817;SDS011;29868;47.360;18.984;2023-05-24T09:32:20;7.55;;;5.90;;
43817;SDS011;29868;47.360;18.984;2023-05-24T09:34:49;8.48;;;6.15;;
43817;SDS011;29868;47.360;18.984;2023-05-24T09:37:16;8.77;;;5.90;;
43817;SDS011;29868;47.360;18.984;2023-05-24T09:39:43;9.95;;;5.85;;
43817;SDS011;29868;47.360;18.984;2023-05-24T09:42:14;7.90;;;5.38;;
43817;SDS011;29868;47.360;18.984;2023-05-24T09:44:42;6.88;;;5.63;;
43817;SDS011;29868;47.360;18.984;2023-05-24T09:47:08;8.35;;;5.80;;
43817;SDS011;29868;47.360;18.984;2023-05-24T09:49:37;8.05;;;5.63;;
43817;SDS011;29868;47.360;18.984;2023-05-24T09:52:03;6.47;;;5.43;;
43817;SDS011;29868;47.360;18.984;2023-05-24T09:54:30;7.00;;;5.18;;
43817;SDS011;29868;47.360;18.984;2023-05-24T09:56:59;7.03;;;5.63;;
43817;SDS011;29868;47.360;18.984;2023-05-24T09:59:26;8.00;;;5.32;;
43817;SDS011;29868;47.360;18.984;2023-05-24T10:01:55;7.00;;;5.70;;
43817;SDS011;29868;47.360;18.984;2023-05-24T10:04:34;6.35;;;5.20;;
43817;SDS011;29868;47.360;18.984;2023-05-24T10:06:59;6.50;;;5.30;;
43817;SDS011;29868;47.360;18.984;2023-05-24T10:09:28;6.05;;;4.70;;
43817;SDS011;29868;47.360;18.984;2023-05-24T10:12:00;7.93;;;5.07;;
43817;SDS011;29868;47.360;18.984;2023-05-24T10:14:28;8.65;;;5.20;;
43817;SDS011;29868;47.360;18.984;2023-05-24T10:19:29;7.10;;;4.85;;
43817;SDS011;29868;47.360;18.984;2023-05-24T10:21:56;6.28;;;4.65;;
43817;SDS011;29868;47.360;18.984;2023-05-24T10:24:24;11.70;;;5.20;;
43817;SDS011;29868;47.360;18.984;2023-05-24T10:26:53;6.32;;;4.90;;
43817;SDS011;29868;47.360;18.984;2023-05-24T10:32:12;7.00;;;5.13;;
43817;SDS011;29868;47.360;18.984;2023-05-24T10:34:40;6.85;;;5.00;;
43817;SDS011;29868;47.360;18.984;2023-05-24T10:37:07;7.03;;;4.80;;
43817;SDS011;29868;47.360;18.984;2023-05-24T10:39:33;6.95;;;4.88;;
43817;SDS011;29868;47.360;18.984;2023-05-24T10:42:05;6.85;;;4.90;;
43817;SDS011;29868;47.360;18.984;2023-05-24T10:44:31;6.50;;;4.63;;
43817;SDS011;29868;47.360;18.984;2023-05-24T10:47:06;6.43;;;5.07;;
43817;SDS011;29868;47.360;18.984;2023-05-24T10:49:36;6.50;;;5.15;;
43817;SDS011;29868;47.360;18.984;2023-05-24T10:52:33;5.47;;;4.57;;
43817;SDS011;29868;47.360;18.984;2023-05-24T10:57:29;6.78;;;4.70;;
43817;SDS011;29868;47.360;18.984;2023-05-24T10:59:57;6.15;;;4.95;;
43817;SDS011;29868;47.360;18.984;2023-05-24T11:02:23;6.65;;;4.88;;
43817;SDS011;29868;47.360;18.984;2023-05-24T11:04:52;7.63;;;4.93;;
43817;SDS011;29868;47.360;18.984;2023-05-24T11:07:20;6.03;;;4.60;;
43817;SDS011;29868;47.360;18.984;2023-05-24T11:09:46;7.13;;;4.40;;
43817;SDS011;29868;47.360;18.984;2023-05-24T11:12:17;6.15;;;4.68;;
43817;SDS011;29868;47.360;18.984;2023-05-24T11:14:50;6.40;;;4.80;;
43817;SDS011;29868;47.360;18.984;2023-05-24T11:17:20;5.70;;;4.97;;
43817;SDS011;29868;47.360;18.984;2023-05-24T11:19:48;7.03;;;4.57;;
43817;SDS011;29868;47.360;18.984;2023-05-24T11:22:16;5.60;;;4.43;;
43817;SDS011;29868;47.360;18.984;2023-05-24T11:24:44;5.82;;;4.53;;
43817;SDS011;29868;47.360;18.984;2023-05-24T11:27:10;5.57;;;4.50;;
43817;SDS011;29868;47.360;18.984;2023-05-24T11:29:43;6.50;;;5.00;;
43817;SDS011;29868;47.360;18.984;2023-05-24T11:32:14;6.57;;;4.57;;
43817;SDS011;29868;47.360;18.984;2023-05-24T11:34:41;6.90;;;4.65;;
43817;SDS011;29868;47.360;18.984;2023-05-24T11:37:09;6.15;;;4.60;;
43817;SDS011;29868;47.360;18.984;2023-05-24T11:39:36;6.38;;;4.60;;
43817;SDS011;29868;47.360;18.984;2023-05-24T11:42:05;5.95;;;4.15;;
43817;SDS011;29868;47.360;18.984;2023-05-24T11:44:32;7.97;;;4.20;;
43817;SDS011;29868;47.360;18.984;2023-05-24T11:47:03;5.32;;;4.18;;
43817;SDS011;29868;47.360;18.984;2023-05-24T11:49:30;7.32;;;4.32;;
43817;SDS011;29868;47.360;18.984;2023-05-24T11:51:56;5.40;;;4.53;;
43817;SDS011;29868;47.360;18.984;2023-05-24T11:54:25;5.10;;;4.10;;
43817;SDS011;29868;47.360;18.984;2023-05-24T11:56:52;6.00;;;4.10;;
43817;SDS011;29868;47.360;18.984;2023-05-24T12:01:48;5.55;;;4.10;;
43817;SDS011;29868;47.360;18.984;2023-05-24T12:04:15;5.35;;;4.00;;
43817;SDS011;29868;47.360;18.984;2023-05-24T12:06:41;6.55;;;4.22;;
43817;SDS011;29868;47.360;18.984;2023-05-24T12:09:08;6.28;;;4.00;;
43817;SDS011;29868;47.360;18.984;2023-05-24T12:11:37;10.43;;;4.47;;
43817;SDS011;29868;47.360;18.984;2023-05-24T12:14:07;5.40;;;3.85;;
43817;SDS011;29868;47.360;18.984;2023-05-24T12:16:36;4.72;;;3.60;;
43817;SDS011;29868;47.360;18.984;2023-05-24T12:19:02;4.90;;;3.75;;
43817;SDS011;29868;47.360;18.984;2023-05-24T12:21:30;5.15;;;3.95;;
43817;SDS011;29868;47.360;18.984;2023-05-24T12:24:03;4.10;;;3.33;;
43817;SDS011;29868;47.360;18.984;2023-05-24T12:26:34;5.68;;;3.67;;
43817;SDS011;29868;47.360;18.984;2023-05-24T12:29:08;4.70;;;3.70;;
43817;SDS011;29868;47.360;18.984;2023-05-24T12:31:35;5.35;;;3.67;;
43817;SDS011;29868;47.360;18.984;2023-05-24T12:34:01;4.68;;;3.78;;
43817;SDS011;29868;47.360;18.984;2023-05-24T12:36:27;4.53;;;3.70;;
43817;SDS011;29868;47.360;18.984;2023-05-24T12:38:55;5.07;;;3.60;;
43817;SDS011;29868;47.360;18.984;2023-05-24T12:41:22;6.03;;;3.60;;
43817;SDS011;29868;47.360;18.984;2023-05-24T12:43:47;5.38;;;3.45;;
43817;SDS011;29868;47.360;18.984;2023-05-24T12:46:15;5.43;;;3.70;;
43817;SDS011;29868;47.360;18.984;2023-05-24T12:48:44;4.47;;;3.35;;
43817;SDS011;29868;47.360;18.984;2023-05-24T12:51:09;4.22;;;3.17;;
43817;SDS011;29868;47.360;18.984;2023-05-24T12:53:35;5.60;;;3.47;;
43817;SDS011;29868;47.360;18.984;2023-05-24T12:56:00;5.50;;;3.50;;
43817;SDS011;29868;47.360;18.984;2023-05-24T12:58:26;4.13;;;3.00;;
43817;SDS011;29868;47.360;18.984;2023-05-24T13:00:51;4.72;;;3.20;;
43817;SDS011;29868;47.360;18.984;2023-05-24T13:03:18;3.95;;;3.08;;
43817;SDS011;29868;47.360;18.984;2023-05-24T13:05:43;5.25;;;3.20;;
43817;SDS011;29868;47.360;18.984;2023-05-24T13:08:10;4.30;;;3.20;;
43817;SDS011;29868;47.360;18.984;2023-05-24T13:10:35;4.57;;;3.22;;
43817;SDS011;29868;47.360;18.984;2023-05-24T13:13:01;6.85;;;3.35;;
43817;SDS011;29868;47.360;18.984;2023-05-24T13:15:26;4.53;;;3.35;;
43817;SDS011;29868;47.360;18.984;2023-05-24T13:17:52;4.78;;;3.22;;
43817;SDS011;29868;47.360;18.984;2023-05-24T13:20:18;4.18;;;2.92;;
43817;SDS011;29868;47.360;18.984;2023-05-24T13:22:46;3.90;;;2.83;;
43817;SDS011;29868;47.360;18.984;2023-05-24T13:25:12;4.97;;;3.10;;
43817;SDS011;29868;47.360;18.984;2023-05-24T13:27:37;4.70;;;2.95;;
43817;SDS011;29868;47.360;18.984;2023-05-24T13:30:03;5.38;;;3.25;;
43817;SDS011;29868;47.360;18.984;2023-05-24T13:32:29;5.70;;;3.47;;
43817;SDS011;29868;47.360;18.984;2023-05-24T13:34:55;3.45;;;2.40;;
43817;SDS011;29868;47.360;18.984;2023-05-24T13:37:21;4.82;;;3.08;;
43817;SDS011;29868;47.360;18.984;2023-05-24T13:39:47;4.82;;;3.10;;
43817;SDS011;29868;47.360;18.984;2023-05-24T13:42:14;5.80;;;2.95;;
43817;SDS011;29868;47.360;18.984;2023-05-24T13:44:39;4.28;;;2.72;;
43817;SDS011;29868;47.360;18.984;2023-05-24T13:47:04;4.13;;;2.90;;
43817;SDS011;29868;47.360;18.984;2023-05-24T13:49:30;4.65;;;3.10;;
43817;SDS011;29868;47.360;18.984;2023-05-24T13:51:55;3.95;;;2.85;;
43817;SDS011;29868;47.360;18.984;2023-05-24T13:54:21;3.97;;;2.85;;
43817;SDS011;29868;47.360;18.984;2023-05-24T13:56:46;3.80;;;2.67;;
43817;SDS011;29868;47.360;18.984;2023-05-24T13:59:13;3.53;;;2.65;;
43817;SDS011;29868;47.360;18.984;2023-05-24T14:01:39;4.80;;;3.13;;
43817;SDS011;29868;47.360;18.984;2023-05-24T14:04:05;3.78;;;2.63;;
43817;SDS011;29868;47.360;18.984;2023-05-24T14:06:31;3.92;;;2.70;;
43817;SDS011;29868;47.360;18.984;2023-05-24T14:08:57;5.50;;;3.13;;
43817;SDS011;29868;47.360;18.984;2023-05-24T14:11:24;3.60;;;2.72;;
43817;SDS011;29868;47.360;18.984;2023-05-24T14:13:50;4.10;;;2.97;;
43817;SDS011;29868;47.360;18.984;2023-05-24T14:16:16;4.20;;;2.80;;
43817;SDS011;29868;47.360;18.984;2023-05-24T14:18:42;4.22;;;2.70;;
43817;SDS011;29868;47.360;18.984;2023-05-24T14:21:07;5.78;;;2.92;;
43817;SDS011;29868;47.360;18.984;2023-05-24T14:23:33;3.20;;;2.58;;
43817;SDS011;29868;47.360;18.984;2023-05-24T14:25:58;4.50;;;2.90;;
43817;SDS011;29868;47.360;18.984;2023-05-24T14:28:24;4.32;;;2.90;;
43817;SDS011;29868;47.360;18.984;2023-05-24T14:30:49;3.72;;;2.78;;
43817;SDS011;29868;47.360;18.984;2023-05-24T14:33:15;4.38;;;2.85;;
43817;SDS011;29868;47.360;18.984;2023-05-24T14:35:41;3.10;;;2.53;;
43817;SDS011;29868;47.360;18.984;2023-05-24T14:38:07;5.05;;;2.88;;
43817;SDS011;29868;47.360;18.984;2023-05-24T14:40:36;3.70;;;2.63;;
43817;SDS011;29868;47.360;18.984;2023-05-24T14:43:04;4.65;;;3.00;;